sensor_id;sensor_type;location;lat;lon;timestamp;pressure;altitude;pressure_sealevel;temperature;humidity
77469;BME280;68840;50.272;12.818;2023-04-29T00:00:06;95582;;;9.1;81.8
77469;BME280;68840;50.272;12.818;2023-04-29T00:02:05;95579;;;9.1;81.8
77469;BME280;68840;50.272;12.818;2023-04-29T00:04:05;95578;;;9.1;81.7
77469;BME280;68840;50.272;12.818;2023-04-29T00:06:05;95574;;;9.1;81.7
77469;BME280;68840;50.272;12.818;2023-04-29T00:08:05;95570;;;9.2;81.7
77469;BME280;68840;50.272;12.818;2023-04-29T00:10:06;95569;;;9.2;81.8
77469;BME280;68840;50.272;12.818;2023-04-29T00:12:05;95569;;;9.2;81.8
77469;BME280;68840;50.272;12.818;2023-04-29T00:14:05;95566;;;9.2;81.7
77469;BME280;68840;50.272;12.818;2023-04-29T00:16:07;95564;;;9.2;81.7
77469;BME280;68840;50.272;12.818;2023-04-29T00:18:05;95567;;;9.2;81.7
77469;BME280;68840;50.272;12.818;2023-04-29T00:20:07;95565;;;9.2;81.8
77469;BME280;68840;50.272;12.818;2023-04-29T00:22:05;95565;;;9.2;81.9
77469;BME280;68840;50.272;12.818;2023-04-29T00:24:06;95564;;;9.2;81.9
77469;BME280;68840;50.272;12.818;2023-04-29T00:26:05;95560;;;9.2;81.8
77469;BME280;68840;50.272;12.818;2023-04-29T00:28:05;95555;;;9.2;81.6
77469;BME280;68840;50.272;12.818;2023-04-29T00:30:07;95550;;;9.2;81.6
77469;BME280;68840;50.272;12.818;2023-04-29T00:32:05;95549;;;9.2;81.5
77469;BME280;68840;50.272;12.818;2023-04-29T00:34:05;95548;;;9.2;81.5
77469;BME280;68840;50.272;12.818;2023-04-29T00:36:05;95545;;;9.2;81.5
77469;BME280;68840;50.272;12.818;2023-04-29T00:38:05;95543;;;9.2;81.5
77469;BME280;68840;50.272;12.818;2023-04-29T00:40:07;95538;;;9.2;81.6
77469;BME280;68840;50.272;12.818;2023-04-29T00:42:05;95536;;;9.2;81.6
77469;BME280;68840;50.272;12.818;2023-04-29T00:44:06;95537;;;9.2;81.6
77469;BME280;68840;50.272;12.818;2023-04-29T00:46:05;95535;;;9.2;81.7
77469;BME280;68840;50.272;12.818;2023-04-29T00:48:05;95530;;;9.2;81.8
77469;BME280;68840;50.272;12.818;2023-04-29T00:50:07;95529;;;9.2;82.0
77469;BME280;68840;50.272;12.818;2023-04-29T00:52:07;95533;;;9.2;82.2
77469;BME280;68840;50.272;12.818;2023-04-29T00:54:07;95533;;;9.3;82.1
77469;BME280;68840;50.272;12.818;2023-04-29T00:56:07;95533;;;9.3;81.9
77469;BME280;68840;50.272;12.818;2023-04-29T00:58:06;95534;;;9.3;81.8
77469;BME280;68840;50.272;12.818;2023-04-29T01:00:06;95537;;;9.3;81.8
77469;BME280;68840;50.272;12.818;2023-04-29T01:02:05;95538;;;9.3;81.8
77469;BME280;68840;50.272;12.818;2023-04-29T01:04:06;95538;;;9.3;81.8
77469;BME280;68840;50.272;12.818;2023-04-29T01:06:11;95539;;;9.3;81.8
77469;BME280;68840;50.272;12.818;2023-04-29T01:08:14;95541;;;9.3;81.9
77469;BME280;68840;50.272;12.818;2023-04-29T01:10:09;95540;;;9.3;81.8
77469;BME280;68840;50.272;12.818;2023-04-29T01:12:13;95542;;;9.3;81.9
77469;BME280;68840;50.272;12.818;2023-04-29T01:14:06;95540;;;9.3;82.0
77469;BME280;68840;50.272;12.818;2023-04-29T01:16:10;95539;;;9.3;81.7
77469;BME280;68840;50.272;12.818;2023-04-29T01:18:13;95538;;;9.3;81.7
77469;BME280;68840;50.272;12.818;2023-04-29T01:20:06;95541;;;9.3;82.0
77469;BME280;68840;50.272;12.818;2023-04-29T01:22:05;95544;;;9.3;81.9
77469;BME280;68840;50.272;12.818;2023-04-29T01:24:05;95547;;;9.3;81.6
77469;BME280;68840;50.272;12.818;2023-04-29T01:26:07;95545;;;9.4;81.6
77469;BME280;68840;50.272;12.818;2023-04-29T01:28:15;95542;;;9.4;81.4
77469;BME280;68840;50.272;12.818;2023-04-29T01:30:11;95539;;;9.4;81.4
77469;BME280;68840;50.272;12.818;2023-04-29T01:32:12;95539;;;9.4;81.4
77469;BME280;68840;50.272;12.818;2023-04-29T01:34:09;95536;;;9.4;81.4
77469;BME280;68840;50.272;12.818;2023-04-29T01:36:15;95535;;;9.4;81.2
77469;BME280;68840;50.272;12.818;2023-04-29T01:38:15;95534;;;9.4;81.4
77469;BME280;68840;50.272;12.818;2023-04-29T01:40:11;95535;;;9.4;81.5
77469;BME280;68840;50.272;12.818;2023-04-29T01:42:14;95537;;;9.4;81.3
77469;BME280;68840;50.272;12.818;2023-04-29T01:44:07;95538;;;9.4;81.4
77469;BME280;68840;50.272;12.818;2023-04-29T01:46:08;95537;;;9.4;81.3
77469;BME280;68840;50.272;12.818;2023-04-29T01:48:05;95538;;;9.4;81.3
77469;BME280;68840;50.272;12.818;2023-04-29T01:50:06;95539;;;9.4;81.4
77469;BME280;68840;50.272;12.818;2023-04-29T01:52:06;95543;;;9.4;81.3
77469;BME280;68840;50.272;12.818;2023-04-29T01:54:05;95542;;;9.4;81.4
77469;BME280;68840;50.272;12.818;2023-04-29T01:56:05;95539;;;9.4;81.7
77469;BME280;68840;50.272;12.818;2023-04-29T01:58:05;95538;;;9.4;81.5
77469;BME280;68840;50.272;12.818;2023-04-29T02:00:06;95539;;;9.4;81.7
77469;BME280;68840;50.272;12.818;2023-04-29T02:02:05;95542;;;9.4;81.8
77469;BME280;68840;50.272;12.818;2023-04-29T02:04:05;95544;;;9.3;82.3
77469;BME280;68840;50.272;12.818;2023-04-29T02:06:06;95546;;;9.3;82.4
77469;BME280;68840;50.272;12.818;2023-04-29T02:08:06;95547;;;9.3;82.4
77469;BME280;68840;50.272;12.818;2023-04-29T02:10:06;95547;;;9.3;82.9
77469;BME280;68840;50.272;12.818;2023-04-29T02:12:05;95548;;;9.3;83.2
77469;BME280;68840;50.272;12.818;2023-04-29T02:14:05;95548;;;9.3;83.2
77469;BME280;68840;50.272;12.818;2023-04-29T02:16:07;95545;;;9.4;83.2
77469;BME280;68840;50.272;12.818;2023-04-29T02:18:05;95543;;;9.4;83.2
77469;BME280;68840;50.272;12.818;2023-04-29T02:20:07;95544;;;9.4;83.1
77469;BME280;68840;50.272;12.818;2023-04-29T02:22:05;95542;;;9.4;83.1
77469;BME280;68840;50.272;12.818;2023-04-29T02:24:05;95539;;;9.4;83.1
77469;BME280;68840;50.272;12.818;2023-04-29T02:26:05;95538;;;9.4;83.1
77469;BME280;68840;50.272;12.818;2023-04-29T02:28:05;95539;;;9.5;83.1
77469;BME280;68840;50.272;12.818;2023-04-29T02:30:06;95539;;;9.5;82.7
77469;BME280;68840;50.272;12.818;2023-04-29T02:32:06;95537;;;9.5;82.8
77469;BME280;68840;50.272;12.818;2023-04-29T02:34:05;95535;;;9.5;82.8
77469;BME280;68840;50.272;12.818;2023-04-29T02:36:05;95531;;;9.5;82.8
77469;BME280;68840;50.272;12.818;2023-04-29T02:38:05;95521;;;9.5;83.0
77469;BME280;68840;50.272;12.818;2023-04-29T02:40:06;95520;;;9.5;83.1
77469;BME280;68840;50.272;12.818;2023-04-29T02:42:05;95523;;;9.5;83.3
77469;BME280;68840;50.272;12.818;2023-04-29T02:44:06;95528;;;9.5;83.3
77469;BME280;68840;50.272;12.818;2023-04-29T02:46:05;95533;;;9.5;83.3
77469;BME280;68840;50.272;12.818;2023-04-29T02:48:06;95533;;;9.5;83.3
77469;BME280;68840;50.272;12.818;2023-04-29T02:50:06;95535;;;9.6;83.2
77469;BME280;68840;50.272;12.818;2023-04-29T02:52:05;95535;;;9.6;83.3
77469;BME280;68840;50.272;12.818;2023-04-29T02:54:05;95535;;;9.6;83.2
77469;BME280;68840;50.272;12.818;2023-04-29T02:56:05;95534;;;9.6;83.1
77469;BME280;68840;50.272;12.818;2023-04-29T02:58:05;95535;;;9.7;83.3
77469;BME280;68840;50.272;12.818;2023-04-29T03:00:06;95535;;;9.7;83.2
77469;BME280;68840;50.272;12.818;2023-04-29T03:02:05;95536;;;9.7;83.3
77469;BME280;68840;50.272;12.818;2023-04-29T03:04:05;95540;;;9.7;83.3
77469;BME280;68840;50.272;12.818;2023-04-29T03:06:05;95540;;;9.7;83.2
77469;BME280;68840;50.272;12.818;2023-04-29T03:08:06;95539;;;9.8;82.8
77469;BME280;68840;50.272;12.818;2023-04-29T03:10:06;95539;;;9.8;82.7
77469;BME280;68840;50.272;12.818;2023-04-29T03:12:05;95538;;;9.8;82.8
77469;BME280;68840;50.272;12.818;2023-04-29T03:14:05;95538;;;9.8;82.8
77469;BME280;68840;50.272;12.818;2023-04-29T03:16:06;95538;;;9.8;82.5
77469;BME280;68840;50.272;12.818;2023-04-29T03:18:05;95536;;;9.8;82.6
77469;BME280;68840;50.272;12.818;2023-04-29T03:20:07;95536;;;9.8;82.6
77469;BME280;68840;50.272;12.818;2023-04-29T03:22:07;95527;;;9.8;82.2
77469;BME280;68840;50.272;12.818;2023-04-29T03:24:05;95524;;;9.8;82.1
77469;BME280;68840;50.272;12.818;2023-04-29T03:26:05;95521;;;9.8;82.0
77469;BME280;68840;50.272;12.818;2023-04-29T03:28:05;95518;;;9.8;81.9
77469;BME280;68840;50.272;12.818;2023-04-29T03:30:06;95519;;;9.8;82.0
77469;BME280;68840;50.272;12.818;2023-04-29T03:32:06;95520;;;9.8;82.4
77469;BME280;68840;50.272;12.818;2023-04-29T03:34:05;95525;;;9.8;82.3
77469;BME280;68840;50.272;12.818;2023-04-29T03:36:07;95526;;;9.8;82.3
77469;BME280;68840;50.272;12.818;2023-04-29T03:38:05;95527;;;9.8;82.4
77469;BME280;68840;50.272;12.818;2023-04-29T03:40:06;95525;;;9.8;82.6
77469;BME280;68840;50.272;12.818;2023-04-29T03:42:05;95525;;;9.8;82.3
77469;BME280;68840;50.272;12.818;2023-04-29T03:44:05;95525;;;9.8;82.3
77469;BME280;68840;50.272;12.818;2023-04-29T03:46:05;95524;;;9.8;82.3
77469;BME280;68840;50.272;12.818;2023-04-29T03:48:05;95522;;;9.8;82.0
77469;BME280;68840;50.272;12.818;2023-04-29T03:50:07;95523;;;9.8;82.2
77469;BME280;68840;50.272;12.818;2023-04-29T03:52:05;95523;;;9.8;82.1
77469;BME280;68840;50.272;12.818;2023-04-29T03:54:05;95523;;;9.8;82.3
77469;BME280;68840;50.272;12.818;2023-04-29T03:56:05;95522;;;9.8;82.3
77469;BME280;68840;50.272;12.818;2023-04-29T03:58:05;95519;;;9.8;81.7
77469;BME280;68840;50.272;12.818;2023-04-29T04:00:06;95519;;;9.8;81.9
77469;BME280;68840;50.272;12.818;2023-04-29T04:02:05;95521;;;9.8;81.9
77469;BME280;68840;50.272;12.818;2023-04-29T04:04:05;95523;;;9.8;82.1
77469;BME280;68840;50.272;12.818;2023-04-29T04:06:05;95525;;;9.8;82.0
77469;BME280;68840;50.272;12.818;2023-04-29T04:08:05;95528;;;9.8;81.9
77469;BME280;68840;50.272;12.818;2023-04-29T04:10:05;95526;;;9.8;81.9
77469;BME280;68840;50.272;12.818;2023-04-29T04:12:05;95525;;;9.8;81.8
77469;BME280;68840;50.272;12.818;2023-04-29T04:14:05;95527;;;9.8;81.9
77469;BME280;68840;50.272;12.818;2023-04-29T04:16:05;95529;;;9.8;81.9
77469;BME280;68840;50.272;12.818;2023-04-29T04:18:05;95529;;;9.8;82.1
77469;BME280;68840;50.272;12.818;2023-04-29T04:20:06;95531;;;9.8;82.2
77469;BME280;68840;50.272;12.818;2023-04-29T04:22:06;95531;;;9.8;82.0
77469;BME280;68840;50.272;12.818;2023-04-29T04:24:06;95532;;;9.8;82.0
77469;BME280;68840;50.272;12.818;2023-04-29T04:26:06;95529;;;9.8;82.0
77469;BME280;68840;50.272;12.818;2023-04-29T04:28:06;95528;;;9.8;81.9
77469;BME280;68840;50.272;12.818;2023-04-29T04:30:06;95529;;;9.8;82.0
77469;BME280;68840;50.272;12.818;2023-04-29T04:32:05;95528;;;9.8;82.3
77469;BME280;68840;50.272;12.818;2023-04-29T04:34:05;95529;;;9.8;82.4
77469;BME280;68840;50.272;12.818;2023-04-29T04:36:06;95530;;;9.8;82.2
77469;BME280;68840;50.272;12.818;2023-04-29T04:38:05;95529;;;9.8;82.0
77469;BME280;68840;50.272;12.818;2023-04-29T04:40:06;95527;;;9.8;82.2
77469;BME280;68840;50.272;12.818;2023-04-29T04:42:05;95528;;;9.9;82.2
77469;BME280;68840;50.272;12.818;2023-04-29T04:44:05;95530;;;9.9;82.7
77469;BME280;68840;50.272;12.818;2023-04-29T04:46:09;95532;;;9.9;83.1
77469;BME280;68840;50.272;12.818;2023-04-29T04:48:05;95537;;;9.9;83.0
77469;BME280;68840;50.272;12.818;2023-04-29T04:50:06;95539;;;9.9;83.2
77469;BME280;68840;50.272;12.818;2023-04-29T04:52:05;95540;;;9.9;83.1
77469;BME280;68840;50.272;12.818;2023-04-29T04:54:05;95540;;;10.0;82.9
77469;BME280;68840;50.272;12.818;2023-04-29T04:56:06;95540;;;10.0;82.9
77469;BME280;68840;50.272;12.818;2023-04-29T04:58:05;95540;;;10.0;82.8
77469;BME280;68840;50.272;12.818;2023-04-29T05:00:07;95540;;;10.0;82.8
77469;BME280;68840;50.272;12.818;2023-04-29T05:02:05;95540;;;10.0;82.8
77469;BME280;68840;50.272;12.818;2023-04-29T05:04:05;95541;;;10.0;82.7
77469;BME280;68840;50.272;12.818;2023-04-29T05:06:05;95539;;;10.1;82.9
77469;BME280;68840;50.272;12.818;2023-04-29T05:08:05;95539;;;10.1;82.8
77469;BME280;68840;50.272;12.818;2023-04-29T05:10:07;95540;;;10.1;83.4
77469;BME280;68840;50.272;12.818;2023-04-29T05:12:05;95539;;;10.1;83.1
77469;BME280;68840;50.272;12.818;2023-04-29T05:14:05;95540;;;10.2;83.6
77469;BME280;68840;50.272;12.818;2023-04-29T05:16:05;95540;;;10.2;83.5
77469;BME280;68840;50.272;12.818;2023-04-29T05:18:05;95542;;;10.2;83.4
77469;BME280;68840;50.272;12.818;2023-04-29T05:20:06;95547;;;10.3;83.9
77469;BME280;68840;50.272;12.818;2023-04-29T05:22:06;95552;;;10.3;83.7
77469;BME280;68840;50.272;12.818;2023-04-29T05:24:05;95553;;;10.4;83.7
77469;BME280;68840;50.272;12.818;2023-04-29T05:26:05;95554;;;10.4;83.7
77469;BME280;68840;50.272;12.818;2023-04-29T05:28:06;95554;;;10.5;83.6
77469;BME280;68840;50.272;12.818;2023-04-29T05:30:06;95553;;;10.6;83.3
77469;BME280;68840;50.272;12.818;2023-04-29T05:32:05;95555;;;10.6;83.2
77469;BME280;68840;50.272;12.818;2023-04-29T05:34:05;95557;;;10.6;83.2
77469;BME280;68840;50.272;12.818;2023-04-29T05:36:06;95557;;;10.7;83.4
77469;BME280;68840;50.272;12.818;2023-04-29T05:38:05;95561;;;10.7;83.5
77469;BME280;68840;50.272;12.818;2023-04-29T05:40:06;95561;;;10.8;83.3
77469;BME280;68840;50.272;12.818;2023-04-29T05:42:05;95563;;;10.8;83.5
77469;BME280;68840;50.272;12.818;2023-04-29T05:44:05;95563;;;10.9;83.4
77469;BME280;68840;50.272;12.818;2023-04-29T05:46:05;95564;;;11.0;83.2
77469;BME280;68840;50.272;12.818;2023-04-29T05:48:05;95565;;;11.2;82.9
77469;BME280;68840;50.272;12.818;2023-04-29T05:50:06;95563;;;11.2;82.5
77469;BME280;68840;50.272;12.818;2023-04-29T05:52:05;95565;;;11.3;82.6
77469;BME280;68840;50.272;12.818;2023-04-29T05:54:05;95565;;;11.4;82.0
77469;BME280;68840;50.272;12.818;2023-04-29T05:56:07;95564;;;11.4;81.9
77469;BME280;68840;50.272;12.818;2023-04-29T05:58:05;95568;;;11.4;81.8
77469;BME280;68840;50.272;12.818;2023-04-29T06:00:06;95570;;;11.5;81.9
77469;BME280;68840;50.272;12.818;2023-04-29T06:02:05;95568;;;11.5;82.0
77469;BME280;68840;50.272;12.818;2023-04-29T06:04:05;95572;;;11.5;81.9
77469;BME280;68840;50.272;12.818;2023-04-29T06:06:05;95570;;;11.5;81.9
77469;BME280;68840;50.272;12.818;2023-04-29T06:08:05;95568;;;11.6;82.1
77469;BME280;68840;50.272;12.818;2023-04-29T06:10:07;95570;;;11.6;81.9
77469;BME280;68840;50.272;12.818;2023-04-29T06:12:05;95570;;;11.6;81.7
77469;BME280;68840;50.272;12.818;2023-04-29T06:14:05;95575;;;11.7;81.8
77469;BME280;68840;50.272;12.818;2023-04-29T06:16:06;95581;;;11.7;82.1
77469;BME280;68840;50.272;12.818;2023-04-29T06:18:05;95588;;;11.7;82.2
77469;BME280;68840;50.272;12.818;2023-04-29T06:20:06;95587;;;11.8;82.0
77469;BME280;68840;50.272;12.818;2023-04-29T06:22:05;95585;;;11.8;81.7
77469;BME280;68840;50.272;12.818;2023-04-29T06:24:05;95585;;;11.8;82.2
77469;BME280;68840;50.272;12.818;2023-04-29T06:26:06;95586;;;11.9;82.1
77469;BME280;68840;50.272;12.818;2023-04-29T06:28:07;95587;;;12.0;82.6
77469;BME280;68840;50.272;12.818;2023-04-29T06:30:06;95590;;;12.1;82.7
77469;BME280;68840;50.272;12.818;2023-04-29T06:32:05;95593;;;12.3;83.6
77469;BME280;68840;50.272;12.818;2023-04-29T06:34:05;95593;;;12.5;83.3
77469;BME280;68840;50.272;12.818;2023-04-29T06:36:05;95594;;;12.6;82.5
77469;BME280;68840;50.272;12.818;2023-04-29T06:38:07;95595;;;12.8;80.7
77469;BME280;68840;50.272;12.818;2023-04-29T06:40:06;95596;;;12.8;80.4
77469;BME280;68840;50.272;12.818;2023-04-29T06:42:06;95596;;;12.9;80.0
77469;BME280;68840;50.272;12.818;2023-04-29T06:44:05;95596;;;12.9;79.5
77469;BME280;68840;50.272;12.818;2023-04-29T06:46:06;95597;;;12.9;80.0
77469;BME280;68840;50.272;12.818;2023-04-29T06:48:05;95603;;;12.9;79.1
77469;BME280;68840;50.272;12.818;2023-04-29T06:50:05;95604;;;12.9;79.6
77469;BME280;68840;50.272;12.818;2023-04-29T06:52:05;95606;;;12.8;79.8
77469;BME280;68840;50.272;12.818;2023-04-29T06:54:05;95606;;;12.8;78.8
77469;BME280;68840;50.272;12.818;2023-04-29T06:56:06;95607;;;12.8;78.6
77469;BME280;68840;50.272;12.818;2023-04-29T06:58:05;95607;;;12.7;79.4
77469;BME280;68840;50.272;12.818;2023-04-29T07:00:06;95609;;;12.7;78.9
77469;BME280;68840;50.272;12.818;2023-04-29T07:02:05;95606;;;12.7;77.4
77469;BME280;68840;50.272;12.818;2023-04-29T07:04:05;95613;;;12.7;78.3
77469;BME280;68840;50.272;12.818;2023-04-29T07:06:05;95615;;;12.7;77.8
77469;BME280;68840;50.272;12.818;2023-04-29T07:08:06;95620;;;12.7;77.9
77469;BME280;68840;50.272;12.818;2023-04-29T07:10:05;95622;;;12.7;78.5
77469;BME280;68840;50.272;12.818;2023-04-29T07:12:05;95620;;;12.6;77.4
77469;BME280;68840;50.272;12.818;2023-04-29T07:14:06;95618;;;12.6;77.1
77469;BME280;68840;50.272;12.818;2023-04-29T07:16:13;95624;;;12.7;78.1
77469;BME280;68840;50.272;12.818;2023-04-29T07:18:05;95627;;;12.8;77.1
77469;BME280;68840;50.272;12.818;2023-04-29T07:20:06;95632;;;12.9;78.1
77469;BME280;68840;50.272;12.818;2023-04-29T07:22:05;95631;;;13.0;77.7
77469;BME280;68840;50.272;12.818;2023-04-29T07:24:05;95629;;;13.1;78.1
77469;BME280;68840;50.272;12.818;2023-04-29T07:26:09;95627;;;13.2;76.5
77469;BME280;68840;50.272;12.818;2023-04-29T07:28:05;95629;;;13.3;78.0
77469;BME280;68840;50.272;12.818;2023-04-29T07:30:06;95629;;;13.5;76.7
77469;BME280;68840;50.272;12.818;2023-04-29T07:32:05;95630;;;13.6;75.2
77469;BME280;68840;50.272;12.818;2023-04-29T07:34:05;95631;;;13.6;75.0
77469;BME280;68840;50.272;12.818;2023-04-29T07:36:06;95633;;;13.6;75.0
77469;BME280;68840;50.272;12.818;2023-04-29T07:38:05;95630;;;13.6;75.3
77469;BME280;68840;50.272;12.818;2023-04-29T07:40:06;95627;;;13.8;74.3
77469;BME280;68840;50.272;12.818;2023-04-29T07:42:05;95626;;;13.9;74.8
77469;BME280;68840;50.272;12.818;2023-04-29T07:44:05;95633;;;14.0;73.1
77469;BME280;68840;50.272;12.818;2023-04-29T07:46:05;95635;;;14.2;74.8
77469;BME280;68840;50.272;12.818;2023-04-29T07:48:05;95634;;;14.3;71.9
77469;BME280;68840;50.272;12.818;2023-04-29T07:50:05;95634;;;14.5;72.5
77469;BME280;68840;50.272;12.818;2023-04-29T07:52:06;95632;;;14.6;69.6
77469;BME280;68840;50.272;12.818;2023-04-29T07:54:05;95635;;;14.6;69.2
77469;BME280;68840;50.272;12.818;2023-04-29T07:56:06;95638;;;14.6;67.3
77469;BME280;68840;50.272;12.818;2023-04-29T07:58:05;95640;;;14.6;69.0
77469;BME280;68840;50.272;12.818;2023-04-29T08:00:07;95643;;;14.6;68.6
77469;BME280;68840;50.272;12.818;2023-04-29T08:02:05;95644;;;14.6;68.9
77469;BME280;68840;50.272;12.818;2023-04-29T08:04:06;95646;;;14.6;67.1
77469;BME280;68840;50.272;12.818;2023-04-29T08:06:06;95650;;;14.5;67.0
77469;BME280;68840;50.272;12.818;2023-04-29T08:08:05;95651;;;14.5;66.9
77469;BME280;68840;50.272;12.818;2023-04-29T08:10:06;95653;;;14.4;66.7
77469;BME280;68840;50.272;12.818;2023-04-29T08:12:05;95660;;;14.3;66.1
77469;BME280;68840;50.272;12.818;2023-04-29T08:14:05;95660;;;14.2;67.1
77469;BME280;68840;50.272;12.818;2023-04-29T08:16:05;95656;;;14.1;66.9
77469;BME280;68840;50.272;12.818;2023-04-29T08:18:05;95657;;;14.0;67.5
77469;BME280;68840;50.272;12.818;2023-04-29T08:20:07;95659;;;13.9;68.1
77469;BME280;68840;50.272;12.818;2023-04-29T08:22:05;95661;;;13.9;70.4
77469;BME280;68840;50.272;12.818;2023-04-29T08:24:05;95665;;;13.9;70.2
77469;BME280;68840;50.272;12.818;2023-04-29T08:26:05;95668;;;14.0;70.5
77469;BME280;68840;50.272;12.818;2023-04-29T08:28:05;95670;;;14.0;69.7
77469;BME280;68840;50.272;12.818;2023-04-29T08:30:06;95671;;;14.0;70.5
77469;BME280;68840;50.272;12.818;2023-04-29T08:32:05;95671;;;14.1;70.1
77469;BME280;68840;50.272;12.818;2023-04-29T08:34:05;95671;;;14.1;68.6
77469;BME280;68840;50.272;12.818;2023-04-29T08:36:07;95673;;;14.2;68.9
77469;BME280;68840;50.272;12.818;2023-04-29T08:38:06;95672;;;14.2;69.7
77469;BME280;68840;50.272;12.818;2023-04-29T08:40:07;95675;;;14.2;70.5
77469;BME280;68840;50.272;12.818;2023-04-29T08:42:09;95678;;;14.2;68.7
77469;BME280;68840;50.272;12.818;2023-04-29T08:44:05;95679;;;14.2;68.1
77469;BME280;68840;50.272;12.818;2023-04-29T08:46:06;95679;;;14.3;68.9
77469;BME280;68840;50.272;12.818;2023-04-29T08:48:06;95683;;;14.3;68.0
77469;BME280;68840;50.272;12.818;2023-04-29T08:50:06;95686;;;14.3;66.8
77469;BME280;68840;50.272;12.818;2023-04-29T08:52:05;95685;;;14.2;69.0
77469;BME280;68840;50.272;12.818;2023-04-29T08:54:07;95684;;;14.3;69.1
77469;BME280;68840;50.272;12.818;2023-04-29T08:56:10;95687;;;14.3;67.5
77469;BME280;68840;50.272;12.818;2023-04-29T08:58:06;95688;;;14.3;67.6
77469;BME280;68840;50.272;12.818;2023-04-29T09:00:07;95690;;;14.3;68.1
77469;BME280;68840;50.272;12.818;2023-04-29T09:02:10;95691;;;14.3;68.0
77469;BME280;68840;50.272;12.818;2023-04-29T09:04:24;95695;;;14.3;68.8
77469;BME280;68840;50.272;12.818;2023-04-29T09:06:05;95696;;;14.3;70.7
77469;BME280;68840;50.272;12.818;2023-04-29T09:08:05;95696;;;14.3;67.6
77469;BME280;68840;50.272;12.818;2023-04-29T09:10:07;95699;;;14.3;68.8
77469;BME280;68840;50.272;12.818;2023-04-29T09:12:05;95700;;;14.3;68.1
77469;BME280;68840;50.272;12.818;2023-04-29T09:14:07;95701;;;14.3;66.2
77469;BME280;68840;50.272;12.818;2023-04-29T09:16:10;95703;;;14.3;67.1
77469;BME280;68840;50.272;12.818;2023-04-29T09:18:05;95711;;;14.2;66.8
77469;BME280;68840;50.272;12.818;2023-04-29T09:20:31;95719;;;14.1;67.3
77469;BME280;68840;50.272;12.818;2023-04-29T09:22:06;95723;;;14.0;68.2
77469;BME280;68840;50.272;12.818;2023-04-29T09:24:05;95725;;;13.8;69.5
77469;BME280;68840;50.272;12.818;2023-04-29T09:26:05;95724;;;13.7;70.9
77469;BME280;68840;50.272;12.818;2023-04-29T09:28:14;95722;;;13.6;72.2
77469;BME280;68840;50.272;12.818;2023-04-29T09:30:06;95722;;;13.5;71.8
77469;BME280;68840;50.272;12.818;2023-04-29T09:32:17;95722;;;13.5;73.9
77469;BME280;68840;50.272;12.818;2023-04-29T09:34:06;95724;;;13.5;74.2
77469;BME280;68840;50.272;12.818;2023-04-29T09:36:05;95726;;;13.5;73.9
77469;BME280;68840;50.272;12.818;2023-04-29T09:38:11;95729;;;13.6;73.2
77469;BME280;68840;50.272;12.818;2023-04-29T09:40:07;95731;;;13.6;73.9
77469;BME280;68840;50.272;12.818;2023-04-29T09:42:05;95734;;;13.6;74.7
77469;BME280;68840;50.272;12.818;2023-04-29T09:44:06;95739;;;13.7;72.7
77469;BME280;68840;50.272;12.818;2023-04-29T09:46:11;95743;;;13.7;71.7
77469;BME280;68840;50.272;12.818;2023-04-29T09:48:06;95743;;;13.6;72.3
77469;BME280;68840;50.272;12.818;2023-04-29T09:50:14;95745;;;13.6;73.3
77469;BME280;68840;50.272;12.818;2023-04-29T09:52:07;95746;;;13.6;74.1
77469;BME280;68840;50.272;12.818;2023-04-29T09:54:19;95747;;;13.5;73.7
77469;BME280;68840;50.272;12.818;2023-04-29T09:56:06;95748;;;13.5;73.1
77469;BME280;68840;50.272;12.818;2023-04-29T09:58:05;95747;;;13.5;73.9
77469;BME280;68840;50.272;12.818;2023-04-29T10:00:06;95750;;;13.5;73.3
77469;BME280;68840;50.272;12.818;2023-04-29T10:02:10;95750;;;13.5;74.5
77469;BME280;68840;50.272;12.818;2023-04-29T10:04:07;95750;;;13.6;74.4
77469;BME280;68840;50.272;12.818;2023-04-29T10:06:06;95747;;;13.7;73.9
77469;BME280;68840;50.272;12.818;2023-04-29T10:08:05;95749;;;13.7;73.0
77469;BME280;68840;50.272;12.818;2023-04-29T10:10:08;95752;;;13.8;74.0
77469;BME280;68840;50.272;12.818;2023-04-29T10:12:06;95752;;;13.9;73.5
77469;BME280;68840;50.272;12.818;2023-04-29T10:14:06;95753;;;13.9;73.3
77469;BME280;68840;50.272;12.818;2023-04-29T10:16:11;95750;;;14.0;72.0
77469;BME280;68840;50.272;12.818;2023-04-29T10:18:13;95751;;;14.0;73.3
77469;BME280;68840;50.272;12.818;2023-04-29T10:20:07;95753;;;14.1;72.1
77469;BME280;68840;50.272;12.818;2023-04-29T10:22:08;95754;;;14.0;71.8
77469;BME280;68840;50.272;12.818;2023-04-29T10:24:05;95757;;;14.0;70.9
77469;BME280;68840;50.272;12.818;2023-04-29T10:26:07;95765;;;14.0;71.4
77469;BME280;68840;50.272;12.818;2023-04-29T10:28:08;95768;;;13.9;72.6
77469;BME280;68840;50.272;12.818;2023-04-29T10:30:06;95771;;;13.9;69.8
77469;BME280;68840;50.272;12.818;2023-04-29T10:32:07;95768;;;13.8;68.8
77469;BME280;68840;50.272;12.818;2023-04-29T10:34:05;95768;;;13.8;70.0
77469;BME280;68840;50.272;12.818;2023-04-29T10:36:06;95768;;;13.7;70.0
77469;BME280;68840;50.272;12.818;2023-04-29T10:38:15;95769;;;13.6;70.8
77469;BME280;68840;50.272;12.818;2023-04-29T10:40:11;95767;;;13.6;68.8
77469;BME280;68840;50.272;12.818;2023-04-29T10:42:16;95769;;;13.6;67.9
77469;BME280;68840;50.272;12.818;2023-04-29T10:44:05;95772;;;13.6;67.7
77469;BME280;68840;50.272;12.818;2023-04-29T10:46:16;95771;;;13.6;67.3
77469;BME280;68840;50.272;12.818;2023-04-29T10:48:14;95767;;;13.6;69.1
77469;BME280;68840;50.272;12.818;2023-04-29T10:50:06;95767;;;13.6;68.2
77469;BME280;68840;50.272;12.818;2023-04-29T10:52:05;95768;;;13.7;68.8
77469;BME280;68840;50.272;12.818;2023-04-29T10:54:07;95770;;;13.8;66.3
77469;BME280;68840;50.272;12.818;2023-04-29T10:56:08;95773;;;13.8;66.4
77469;BME280;68840;50.272;12.818;2023-04-29T10:58:32;95773;;;13.8;65.3
77469;BME280;68840;50.272;12.818;2023-04-29T11:00:06;95774;;;13.9;65.1
77469;BME280;68840;50.272;12.818;2023-04-29T11:02:05;95773;;;13.9;66.5
77469;BME280;68840;50.272;12.818;2023-04-29T11:04:05;95773;;;13.9;64.0
77469;BME280;68840;50.272;12.818;2023-04-29T11:06:08;95774;;;14.0;65.0
77469;BME280;68840;50.272;12.818;2023-04-29T11:08:09;95775;;;14.0;65.2
77469;BME280;68840;50.272;12.818;2023-04-29T11:10:06;95777;;;14.1;64.1
77469;BME280;68840;50.272;12.818;2023-04-29T11:12:07;95782;;;14.1;64.6
77469;BME280;68840;50.272;12.818;2023-04-29T11:14:07;95784;;;14.1;63.4